Time;durP1;ratioP1;P1;durP2;ratioP2;P2;SDS_P1;SDS_P2;PMS_P1;PMS_P2;Temp;Humidity;BMP_temperature;BMP_pressure;BME280_temperature;BME280_humidity;BME280_pressure;Samples;Min_cycle;Max_cycle;Signal;HPM_P1;HPM_P2
2023/12/09 00:01:23;;;;;;;17.63;15.90;;;8.10;99.90;;;;;;10412827;28;20213;-77
2023/12/09 00:06:26;;;;;;;17.53;15.83;;;8.10;99.90;;;;;;10410687;28;20730;-78
2023/12/09 00:11:30;;;;;;;20.47;18.13;;;8.10;99.90;;;;;;10410361;28;20614;-76
2023/12/09 00:16:34;;;;;;;18.40;16.70;;;8.10;99.90;;;;;;10383446;28;20218;-78
2023/12/09 00:21:36;;;;;;;15.70;14.40;;;8.10;99.90;;;;;;10380164;28;20229;-78
2023/12/09 00:26:40;;;;;;;18.17;16.30;;;8.10;99.90;;;;;;10404790;28;20639;-77
2023/12/09 00:31:42;;;;;;;18.10;16.50;;;8.10;99.90;;;;;;10392963;28;20236;-77
2023/12/09 00:36:44;;;;;;;18.53;16.50;;;8.10;99.90;;;;;;10404239;28;20564;-78
2023/12/09 00:41:48;;;;;;;19.20;17.20;;;8.10;99.90;;;;;;10409663;28;20250;-77
2023/12/09 00:46:51;;;;;;;17.93;16.23;;;8.10;99.90;;;;;;10413424;28;20632;-78
2023/12/09 00:51:53;;;;;;;21.70;16.90;;;8.10;99.90;;;;;;10414679;28;20198;-78
2023/12/09 00:56:57;;;;;;;17.87;16.07;;;8.10;99.90;;;;;;10396605;28;20225;-78
2023/12/09 01:01:59;;;;;;;19.07;17.17;;;8.10;99.90;;;;;;10413892;28;20234;-77
2023/12/09 01:07:01;;;;;;;17.63;15.80;;;8.10;99.90;;;;;;10399436;22;20269;-79
2023/12/09 01:12:06;;;;;;;16.87;15.27;;;8.10;99.90;;;;;;10371485;28;20211;-78
2023/12/09 01:17:08;;;;;;;20.50;17.77;;;8.00;99.90;;;;;;10351421;28;20230;-78
2023/12/09 01:22:10;;;;;;;17.23;15.63;;;8.00;99.90;;;;;;10350857;28;20249;-78
2023/12/09 01:27:14;;;;;;;17.50;15.63;;;8.00;99.90;;;;;;10364863;28;20231;-76
2023/12/09 01:32:16;;;;;;;13.73;12.23;;;8.00;99.90;;;;;;10368521;28;20187;-78
2023/12/09 01:37:19;;;;;;;19.47;15.50;;;8.00;99.90;;;;;;10369202;28;20225;-79
2023/12/09 01:42:22;;;;;;;16.07;14.57;;;8.00;99.90;;;;;;10369071;28;20237;-79
2023/12/09 01:47:25;;;;;;;18.40;14.50;;;8.00;99.90;;;;;;10368502;28;20276;-79
2023/12/09 01:52:27;;;;;;;16.00;14.40;;;8.00;99.90;;;;;;10370140;28;20210;-78
2023/12/09 01:57:34;;;;;;;15.77;14.27;;;8.00;99.90;;;;;;10351161;28;20593;-78
2023/12/09 02:02:36;;;;;;;13.30;12.20;;;8.00;99.90;;;;;;10362568;28;20225;-79
2023/12/09 02:07:39;;;;;;;17.80;16.00;;;8.00;99.90;;;;;;10367933;28;20249;-78
2023/12/09 02:12:50;;;;;;;16.70;15.10;;;8.00;99.90;;;;;;10369419;28;20269;-77
2023/12/09 02:17:58;;;;;;;18.17;16.30;;;8.10;99.90;;;;;;10376967;28;20194;-79
2023/12/09 02:23:08;;;;;;;17.23;15.43;;;8.00;99.90;;;;;;10382392;28;20230;-79
2023/12/09 02:28:15;;;;;;;16.93;13.70;;;8.00;99.90;;;;;;10382415;28;20219;-80
2023/12/09 02:33:22;;;;;;;13.77;12.37;;;8.00;99.90;;;;;;10381028;28;20225;-79
2023/12/09 02:38:27;;;;;;;15.37;11.67;;;8.10;99.90;;;;;;10379621;28;20687;-79
2023/12/09 02:43:29;;;;;;;12.77;10.90;;;8.10;99.90;;;;;;10364179;28;20218;-79
2023/12/09 02:48:32;;;;;;;11.60;10.70;;;8.20;99.90;;;;;;10382052;28;20197;-79
2023/12/09 02:53:35;;;;;;;12.00;10.43;;;8.30;99.90;;;;;;10382489;28;20221;-79
2023/12/09 02:58:38;;;;;;;11.70;10.70;;;8.30;99.90;;;;;;10380923;28;20209;-80
2023/12/09 03:03:40;;;;;;;13.00;11.90;;;8.30;99.90;;;;;;10392213;28;20230;-80
2023/12/09 03:08:44;;;;;;;14.10;11.87;;;8.30;99.90;;;;;;10382963;28;20206;-79
2023/12/09 03:13:46;;;;;;;13.50;12.13;;;8.30;99.90;;;;;;10377632;28;20215;-79
2023/12/09 03:18:48;;;;;;;11.90;10.70;;;8.30;99.90;;;;;;10377515;28;20261;-80
2023/12/09 03:23:52;;;;;;;10.63;9.60;;;8.20;99.90;;;;;;10379945;28;20234;-79
2023/12/09 03:28:54;;;;;;;11.57;10.27;;;8.10;99.90;;;;;;10376180;28;20210;-79
2023/12/09 03:33:57;;;;;;;11.87;10.87;;;8.10;99.90;;;;;;10379336;28;20291;-79
2023/12/09 03:39:00;;;;;;;11.60;10.50;;;8.00;99.90;;;;;;10377472;28;20630;-78
2023/12/09 03:44:03;;;;;;;11.93;10.43;;;8.00;99.90;;;;;;10376462;28;20719;-79
2023/12/09 03:49:05;;;;;;;11.03;10.10;;;8.00;99.90;;;;;;10377790;28;20214;-80
2023/12/09 03:54:09;;;;;;;11.73;10.50;;;8.00;99.90;;;;;;10378357;28;20280;-79
2023/12/09 03:59:12;;;;;;;11.17;10.17;;;7.90;99.90;;;;;;10360419;28;20187;-80
2023/12/09 04:04:14;;;;;;;12.97;11.10;;;7.80;99.90;;;;;;10378657;28;20223;-80
2023/12/09 04:09:18;;;;;;;10.50;9.57;;;7.80;99.90;;;;;;10377353;28;20210;-80
2023/12/09 04:14:20;;;;;;;11.67;10.50;;;7.60;99.90;;;;;;10376988;28;20215;-79
2023/12/09 04:19:23;;;;;;;10.50;9.60;;;7.50;99.90;;;;;;10377708;28;20614;-79
2023/12/09 04:24:26;;;;;;;12.37;10.90;;;7.40;99.90;;;;;;10377091;28;20234;-79
2023/12/09 04:29:29;;;;;;;13.90;10.47;;;7.30;99.90;;;;;;10376351;28;20253;-79
2023/12/09 04:34:31;;;;;;;13.03;11.70;;;7.20;99.90;;;;;;10376242;28;20261;-80
2023/12/09 04:39:35;;;;;;;12.67;11.03;;;7.20;99.90;;;;;;10369884;28;20255;-79
2023/12/09 04:44:37;;;;;;;11.17;9.97;;;7.20;99.90;;;;;;10377023;28;20637;-79
2023/12/09 04:49:39;;;;;;;13.30;10.83;;;7.20;99.90;;;;;;10378434;28;20199;-79
2023/12/09 04:54:43;;;;;;;11.73;10.53;;;7.30;99.90;;;;;;10382347;28;20213;-79
2023/12/09 04:59:45;;;;;;;14.10;10.13;;;7.30;99.90;;;;;;10377554;28;20202;-80
2023/12/09 05:04:48;;;;;;;12.77;9.10;;;7.40;99.90;;;;;;10378014;28;20218;-79
2023/12/09 05:09:51;;;;;;;10.07;8.57;;;7.40;99.90;;;;;;10380895;28;20229;-79
2023/12/09 05:14:54;;;;;;;9.37;8.33;;;7.40;99.90;;;;;;10375783;28;20222;-79
2023/12/09 05:19:56;;;;;;;7.87;7.03;;;7.50;99.90;;;;;;10376567;28;20676;-79
2023/12/09 05:25:00;;;;;;;7.97;7.17;;;7.50;99.90;;;;;;10373466;28;20702;-80
2023/12/09 05:30:02;;;;;;;7.60;6.90;;;7.60;99.90;;;;;;10374899;28;20198;-79
2023/12/09 05:35:05;;;;;;;9.30;8.40;;;7.70;99.90;;;;;;10375531;28;20210;-80
2023/12/09 05:40:10;;;;;;;12.37;8.00;;;7.80;99.90;;;;;;10357592;28;20206;-79
2023/12/09 05:45:12;;;;;;;9.50;7.20;;;7.80;99.90;;;;;;10374776;28;20250;-79
2023/12/09 05:50:15;;;;;;;7.67;6.87;;;7.90;99.90;;;;;;10375237;28;20207;-80
2023/12/09 05:55:18;;;;;;;7.47;6.33;;;8.00;99.90;;;;;;10373957;28;20211;-79
2023/12/09 06:00:21;;;;;;;7.20;6.13;;;8.00;99.90;;;;;;10360267;28;20194;-79
2023/12/09 06:05:23;;;;;;;6.93;6.23;;;8.00;99.90;;;;;;10383877;28;20712;-79
2023/12/09 06:10:27;;;;;;;7.77;5.63;;;8.00;99.90;;;;;;10373062;28;20202;-79
2023/12/09 06:15:29;;;;;;;5.93;5.20;;;8.10;99.90;;;;;;10373483;28;20214;-78
2023/12/09 06:20:33;;;;;;;8.07;5.47;;;8.10;99.90;;;;;;10374669;28;20212;-79
2023/12/09 06:25:37;;;;;;;7.13;5.37;;;8.10;99.90;;;;;;10355421;28;20234;-79
2023/12/09 06:30:39;;;;;;;6.47;5.87;;;8.10;99.90;;;;;;10373178;28;20187;-79
2023/12/09 06:35:42;;;;;;;7.63;5.57;;;8.10;99.90;;;;;;10356169;28;20272;-79
2023/12/09 06:40:45;;;;;;;5.67;5.07;;;8.10;99.90;;;;;;10374675;28;20708;-79
2023/12/09 06:45:48;;;;;;;6.57;5.00;;;8.10;99.90;;;;;;10373744;28;20234;-78
2023/12/09 06:50:50;;;;;;;5.20;4.40;;;8.10;99.90;;;;;;10374178;28;20718;-79
2023/12/09 06:55:54;;;;;;;8.17;4.93;;;8.20;99.90;;;;;;10371466;28;20206;-78
2023/12/09 07:00:56;;;;;;;4.50;4.00;;;8.20;99.90;;;;;;10371194;28;20629;-78
2023/12/09 07:05:58;;;;;;;8.67;4.10;;;8.20;99.90;;;;;;10376669;28;20230;-79
2023/12/09 07:11:02;;;;;;;4.50;3.90;;;8.10;99.90;;;;;;10382964;28;20257;-78
2023/12/09 07:16:08;;;;;;;6.50;3.73;;;8.10;99.90;;;;;;10378506;28;20206;-78
2023/12/09 07:21:10;;;;;;;4.00;3.20;;;8.20;99.90;;;;;;10377335;28;20211;-79
2023/12/09 07:26:14;;;;;;;3.83;3.50;;;8.20;99.90;;;;;;10342890;28;20221;-79
2023/12/09 07:31:17;;;;;;;4.27;3.87;;;8.20;99.90;;;;;;10375854;28;20470;-78
2023/12/09 07:36:19;;;;;;;4.47;3.50;;;8.20;99.90;;;;;;10378241;28;20261;-79
2023/12/09 07:41:23;;;;;;;5.40;3.73;;;8.30;99.90;;;;;;10376839;28;20617;-78
2023/12/09 07:46:25;;;;;;;4.30;3.90;;;8.30;99.90;;;;;;10374979;28;20261;-78
2023/12/09 07:51:28;;;;;;;3.70;3.40;;;8.30;99.90;;;;;;10375432;28;20260;-78
2023/12/09 07:56:31;;;;;;;3.50;3.20;;;8.40;99.90;;;;;;10359853;28;20226;-79
2023/12/09 08:01:35;;;;;;;5.03;3.17;;;8.40;99.90;;;;;;10360881;28;20199;-80
2023/12/09 08:06:37;;;;;;;4.03;3.73;;;8.40;99.90;;;;;;10378384;28;20227;-79
2023/12/09 08:11:41;;;;;;;5.10;4.00;;;8.40;99.90;;;;;;10378970;28;20221;-78
2023/12/09 08:16:43;;;;;;;3.67;3.37;;;8.40;99.90;;;;;;10377290;28;20215;-79
2023/12/09 08:21:46;;;;;;;6.90;3.60;;;8.40;99.90;;;;;;10361005;28;20269;-79
2023/12/09 08:26:49;;;;;;;4.17;3.73;;;8.40;99.90;;;;;;10376859;28;20218;-79
2023/12/09 08:31:52;;;;;;;4.30;3.40;;;8.40;99.90;;;;;;10379213;28;20195;-79
2023/12/09 08:36:54;;;;;;;3.73;3.50;;;8.40;99.90;;;;;;10377647;28;20225;-79
2023/12/09 08:41:58;;;;;;;3.87;3.07;;;8.30;99.90;;;;;;10376942;28;20511;-79
2023/12/09 08:47:00;;;;;;;8.50;4.77;;;8.30;99.90;;;;;;10377908;28;20246;-78
2023/12/09 08:52:03;;;;;;;4.27;3.50;;;8.30;99.90;;;;;;10361382;28;20246;-79
2023/12/09 08:57:07;;;;;;;4.53;3.27;;;8.40;99.90;;;;;;10376560;28;20237;-79
2023/12/09 09:02:09;;;;;;;3.87;3.57;;;8.50;99.90;;;;;;10383740;28;20605;-78
2023/12/09 09:07:11;;;;;;;5.27;3.57;;;8.60;99.90;;;;;;10382737;28;20217;-79
2023/12/09 09:12:15;;;;;;;4.83;3.20;;;8.70;99.90;;;;;;10370534;28;20213;-79
2023/12/09 09:17:17;;;;;;;3.83;2.80;;;8.80;99.90;;;;;;10381791;28;20206;-79
2023/12/09 09:22:20;;;;;;;3.47;2.17;;;8.90;99.90;;;;;;10379005;28;20210;-80
2023/12/09 09:27:23;;;;;;;5.10;3.77;;;9.00;99.90;;;;;;10372816;28;20214;-80
2023/12/09 09:32:26;;;;;;;4.60;3.00;;;9.00;99.90;;;;;;10375184;28;20622;-79
2023/12/09 09:37:28;;;;;;;4.33;3.33;;;9.10;99.90;;;;;;10371750;28;20214;-79
2023/12/09 09:42:37;;;;;;;6.13;3.30;;;9.10;99.90;;;;;;10372312;28;20190;-80
2023/12/09 09:47:42;;;;;;;3.70;3.00;;;9.10;99.90;;;;;;10371444;28;20214;-80
2023/12/09 09:52:45;;;;;;;5.90;2.53;;;9.20;99.90;;;;;;10372934;28;20672;-80
2023/12/09 09:57:50;;;;;;;3.43;2.77;;;9.20;99.90;;;;;;10353022;28;20194;-80
2023/12/09 10:02:52;;;;;;;8.00;6.07;;;9.20;99.90;;;;;;10371716;28;20812;-79
2023/12/09 10:07:55;;;;;;;4.73;3.40;;;9.30;99.90;;;;;;10370907;28;20218;-77
2023/12/09 10:12:59;;;;;;;5.90;2.93;;;9.40;99.90;;;;;;10355883;28;20194;-79
2023/12/09 10:18:03;;;;;;;2.83;2.63;;;9.40;99.90;;;;;;10381989;28;20199;-79
2023/12/09 10:23:05;;;;;;;3.20;3.00;;;9.40;99.90;;;;;;10382560;28;20210;-79
2023/12/09 10:28:10;;;;;;;3.20;2.90;;;9.50;99.90;;;;;;10383966;28;20218;-79
2023/12/09 10:33:12;;;;;;;3.33;3.03;;;9.50;99.90;;;;;;10380957;28;20218;-78
2023/12/09 10:38:16;;;;;;;3.10;2.60;;;9.60;99.90;;;;;;10382961;28;20201;-77
2023/12/09 10:43:20;;;;;;;3.03;2.90;;;9.50;99.90;;;;;;10391975;28;20272;-78
2023/12/09 10:48:22;;;;;;;3.60;3.33;;;9.60;99.90;;;;;;10392011;28;20246;-78
2023/12/09 10:53:24;;;;;;;3.20;2.90;;;9.70;99.90;;;;;;10390852;28;20598;-78
2023/12/09 10:58:28;;;;;;;3.00;2.80;;;9.70;99.90;;;;;;10384980;28;20198;-78
2023/12/09 11:03:32;;;;;;;2.77;2.57;;;9.80;99.90;;;;;;10362714;28;20218;-79
2023/12/09 11:08:37;;;;;;;2.53;2.20;;;9.70;99.90;;;;;;10381728;28;20609;-79
2023/12/09 11:13:46;;;;;;;3.20;3.00;;;9.80;99.90;;;;;;10383549;28;20599;-78
2023/12/09 11:18:53;;;;;;;3.70;3.40;;;9.80;99.90;;;;;;10385579;28;20257;-78
2023/12/09 11:23:57;;;;;;;5.00;3.40;;;9.80;99.90;;;;;;10380295;28;20217;-79
2023/12/09 11:29:02;;;;;;;3.87;3.33;;;9.80;99.90;;;;;;10380952;28;20202;-82
2023/12/09 11:34:06;;;;;;;3.43;3.20;;;9.90;99.90;;;;;;10363114;28;20219;-79
2023/12/09 11:39:10;;;;;;;3.90;3.40;;;9.90;99.90;;;;;;10380858;28;20199;-79
2023/12/09 11:44:14;;;;;;;3.70;3.40;;;9.90;99.90;;;;;;10362418;28;20234;-78
2023/12/09 11:49:16;;;;;;;3.70;3.50;;;9.90;99.90;;;;;;10379675;28;20229;-78
2023/12/09 11:54:20;;;;;;;4.23;3.93;;;9.90;99.90;;;;;;10378271;28;20207;-79
2023/12/09 11:59:23;;;;;;;5.20;3.93;;;9.90;99.90;;;;;;10382438;28;20225;-79
2023/12/09 12:04:32;;;;;;;4.20;3.80;;;9.90;99.90;;;;;;10384608;28;20708;-79
2023/12/09 12:09:38;;;;;;;4.13;3.73;;;9.90;99.90;;;;;;10376216;28;20209;-79
2023/12/09 12:14:46;;;;;;;3.83;3.53;;;9.90;99.90;;;;;;10343630;28;20221;-79
2023/12/09 12:19:48;;;;;;;3.90;3.70;;;9.90;99.90;;;;;;10378146;28;20199;-79
2023/12/09 12:24:52;;;;;;;3.57;3.33;;;9.80;99.90;;;;;;10358790;28;20226;-79
2023/12/09 12:29:56;;;;;;;3.40;3.20;;;9.90;99.90;;;;;;10361082;28;20206;-80
2023/12/09 12:34:58;;;;;;;3.93;3.47;;;9.90;99.90;;;;;;10377947;28;20594;-79
2023/12/09 12:40:01;;;;;;;2.90;2.70;;;9.90;99.90;;;;;;10379100;28;20256;-79
2023/12/09 12:45:17;;;;;;;3.20;3.00;;;9.90;99.90;;;;;;10378527;28;20223;-78
2023/12/09 12:50:20;;;;;;;5.60;5.10;;;9.90;99.90;;;;;;10379773;28;20221;-80
2023/12/09 12:55:22;;;;;;;3.23;3.03;;;9.90;99.90;;;;;;10379226;28;20210;-81
2023/12/09 13:00:30;;;;;;;3.70;3.40;;;9.90;99.90;;;;;;10376904;28;20198;-78
2023/12/09 13:05:32;;;;;;;3.43;2.93;;;9.90;99.90;;;;;;10376190;28;20231;-78
2023/12/09 13:10:35;;;;;;;3.50;3.30;;;10.00;99.90;;;;;;10376578;28;20199;-78
2023/12/09 13:15:38;;;;;;;8.27;3.57;;;10.00;99.90;;;;;;10357156;28;20218;-79
2023/12/09 13:20:45;;;;;;;5.60;5.00;;;9.90;99.90;;;;;;10386562;28;20211;-79
2023/12/09 13:25:47;;;;;;;3.30;3.10;;;9.90;99.90;;;;;;10378182;28;20222;-79
2023/12/09 13:30:51;;;;;;;3.03;2.83;;;9.90;99.90;;;;;;10378880;28;20206;-79
2023/12/09 13:35:54;;;;;;;3.50;3.30;;;9.90;99.90;;;;;;10385535;28;20266;-79
2023/12/09 13:40:56;;;;;;;3.40;3.20;;;9.80;99.90;;;;;;10378207;28;20199;-79
2023/12/09 13:46:00;;;;;;;2.87;2.67;;;9.80;99.90;;;;;;10375690;28;20253;-79
2023/12/09 13:51:04;;;;;;;5.20;4.80;;;9.80;99.90;;;;;;10375608;28;20202;-80
2023/12/09 13:56:08;;;;;;;5.47;5.00;;;9.70;99.90;;;;;;10371268;28;20217;-79
2023/12/09 14:01:11;;;;;;;4.63;4.33;;;9.70;99.90;;;;;;10375138;28;20329;-79
2023/12/09 14:06:14;;;;;;;4.23;3.90;;;9.60;99.90;;;;;;10370020;28;20229;-78
2023/12/09 14:11:17;;;;;;;5.00;4.60;;;9.60;99.90;;;;;;10369062;28;20203;-78
2023/12/09 14:16:20;;;;;;;4.10;3.80;;;9.50;99.90;;;;;;10377891;28;20394;-79
2023/12/09 14:21:23;;;;;;;4.00;3.70;;;9.50;99.90;;;;;;10379489;28;20241;-78
2023/12/09 14:26:28;;;;;;;4.10;3.80;;;9.50;99.90;;;;;;10380890;28;20214;-79
2023/12/09 14:31:32;;;;;;;4.53;4.23;;;9.50;99.90;;;;;;10363643;28;20660;-78
2023/12/09 14:36:35;;;;;;;4.40;4.00;;;9.50;99.90;;;;;;10379880;28;20223;-77
2023/12/09 14:41:39;;;;;;;4.43;4.10;;;9.50;99.90;;;;;;10361091;28;20198;-76
2023/12/09 14:46:43;;;;;;;3.60;3.30;;;9.40;99.90;;;;;;10362069;28;20746;-79
2023/12/09 14:51:46;;;;;;;11.43;10.43;;;9.40;99.90;;;;;;10373914;28;20218;-78
2023/12/09 14:56:48;;;;;;;4.93;4.50;;;9.30;99.90;;;;;;10365395;28;20222;-78
2023/12/09 15:01:52;;;;;;;4.73;4.33;;;9.10;99.90;;;;;;10376640;28;20794;-78
2023/12/09 15:06:55;;;;;;;5.57;4.60;;;9.00;99.90;;;;;;10355714;28;20238;-78
2023/12/09 15:11:57;;;;;;;4.97;4.57;;;8.90;99.90;;;;;;10372040;28;20195;-77
2023/12/09 15:17:01;;;;;;;5.67;5.23;;;8.90;99.90;;;;;;10371142;28;20328;-77
2023/12/09 15:22:04;;;;;;;4.70;4.40;;;8.80;99.90;;;;;;10374334;28;20266;-77
2023/12/09 15:27:07;;;;;;;4.70;4.40;;;8.80;99.90;;;;;;10376237;28;20222;-78
2023/12/09 15:32:10;;;;;;;4.97;4.57;;;8.70;99.90;;;;;;10377564;28;20224;-78
2023/12/09 15:37:13;;;;;;;4.73;4.33;;;8.70;99.90;;;;;;10375864;28;20779;-78
2023/12/09 15:42:16;;;;;;;5.30;4.90;;;8.70;99.90;;;;;;10375186;28;20206;-78
2023/12/09 15:47:20;;;;;;;6.90;6.30;;;8.70;99.90;;;;;;10376116;28;20225;-78
2023/12/09 15:52:22;;;;;;;6.67;6.20;;;8.60;99.90;;;;;;10377473;28;20190;-78
2023/12/09 15:57:25;;;;;;;6.43;5.93;;;8.50;99.90;;;;;;10374437;28;20214;-78
2023/12/09 16:02:29;;;;;;;8.50;7.90;;;8.40;99.90;;;;;;10376829;28;20964;-78
2023/12/09 16:07:32;;;;;;;9.83;9.03;;;8.40;99.90;;;;;;10376308;28;20242;-78
2023/12/09 16:12:35;;;;;;;8.30;7.50;;;8.30;99.90;;;;;;10377015;28;20205;-79
2023/12/09 16:17:40;;;;;;;9.60;8.67;;;8.20;99.90;;;;;;10373728;28;20296;-79
2023/12/09 16:22:43;;;;;;;11.20;10.30;;;8.10;99.90;;;;;;10373202;28;20198;-77
2023/12/09 16:27:46;;;;;;;11.00;10.20;;;8.10;99.90;;;;;;10355297;28;20218;-79
2023/12/09 16:32:50;;;;;;;11.17;10.20;;;8.10;99.90;;;;;;10373071;28;20257;-78
2023/12/09 16:37:52;;;;;;;10.37;9.67;;;8.10;99.90;;;;;;10372205;28;20195;-78
2023/12/09 16:42:55;;;;;;;10.97;10.03;;;8.10;99.90;;;;;;10375796;28;20607;-79
2023/12/09 16:47:58;;;;;;;10.00;9.30;;;8.00;99.90;;;;;;10375298;28;20257;-78
2023/12/09 16:53:01;;;;;;;10.13;9.53;;;8.00;99.90;;;;;;10376323;28;20203;-79
2023/12/09 16:58:03;;;;;;;9.17;8.50;;;8.00;99.90;;;;;;10376327;28;20249;-78
2023/12/09 17:03:07;;;;;;;9.07;8.30;;;8.00;99.90;;;;;;10375989;28;20649;-79
2023/12/09 17:08:10;;;;;;;9.00;8.30;;;8.00;99.90;;;;;;10357365;28;20211;-78
2023/12/09 17:13:12;;;;;;;10.40;9.47;;;8.00;99.90;;;;;;10374313;28;20219;-79
2023/12/09 17:18:16;;;;;;;9.10;8.50;;;8.00;99.90;;;;;;10373859;28;20267;-78
2023/12/09 17:23:23;;;;;;;7.50;7.00;;;8.00;99.90;;;;;;10354872;28;20226;-78
2023/12/09 17:28:28;;;;;;;9.80;9.20;;;8.00;99.90;;;;;;10363243;28;20766;-78
2023/12/09 17:33:34;;;;;;;10.57;9.57;;;8.00;99.90;;;;;;10346118;28;20226;-78
2023/12/09 17:38:41;;;;;;;9.87;9.17;;;8.00;99.90;;;;;;10364410;28;20194;-77
2023/12/09 17:43:44;;;;;;;7.70;7.20;;;8.00;99.90;;;;;;10332764;28;20503;-77
2023/12/09 17:48:54;;;;;;;9.60;9.00;;;8.00;99.90;;;;;;10367005;28;20641;-79
2023/12/09 17:53:56;;;;;;;7.00;6.50;;;8.00;99.90;;;;;;10371813;28;20218;-79
2023/12/09 17:59:01;;;;;;;9.13;8.60;;;8.00;99.90;;;;;;10366430;28;20183;-77
2023/12/09 18:04:05;;;;;;;9.80;9.30;;;8.00;99.90;;;;;;10375603;28;20301;-77
2023/12/09 18:09:08;;;;;;;9.50;8.80;;;8.00;99.90;;;;;;10366210;28;20241;-76
2023/12/09 18:14:11;;;;;;;9.80;9.20;;;7.90;99.90;;;;;;10367012;28;20225;-78
2023/12/09 18:19:15;;;;;;;9.20;8.40;;;7.90;99.90;;;;;;10367132;28;21151;-77
2023/12/09 18:24:18;;;;;;;8.97;8.33;;;7.90;99.90;;;;;;10362421;28;20292;-78
2023/12/09 18:29:21;;;;;;;6.00;5.50;;;8.00;99.90;;;;;;10364826;28;20226;-78
2023/12/09 18:34:25;;;;;;;9.80;9.00;;;8.00;99.90;;;;;;10364543;28;20214;-77
2023/12/09 18:39:28;;;;;;;9.73;9.33;;;8.00;99.90;;;;;;10347537;28;20638;-78
2023/12/09 18:44:30;;;;;;;6.70;6.20;;;8.00;99.90;;;;;;10366194;28;20219;-79
2023/12/09 18:49:34;;;;;;;5.00;4.80;;;8.10;99.90;;;;;;10365213;28;20705;-77
2023/12/09 18:54:36;;;;;;;9.30;8.90;;;8.10;99.90;;;;;;10346186;28;20226;-78
2023/12/09 18:59:39;;;;;;;6.00;5.70;;;8.20;99.90;;;;;;10356209;28;20326;-80
2023/12/09 19:04:46;;;;;;;9.00;8.60;;;8.20;99.90;;;;;;10375534;28;20230;-79
2023/12/09 19:09:48;;;;;;;7.07;6.70;;;8.30;99.90;;;;;;10367959;28;20249;-80
2023/12/09 19:14:50;;;;;;;8.50;8.00;;;8.30;99.90;;;;;;10358167;28;20218;-79
2023/12/09 19:19:54;;;;;;;6.23;5.93;;;8.30;99.90;;;;;;10368822;28;20209;-79
2023/12/09 19:24:57;;;;;;;8.40;8.00;;;8.30;99.90;;;;;;10372650;28;20269;-78
2023/12/09 19:29:59;;;;;;;8.93;8.53;;;8.30;99.90;;;;;;10350211;28;20339;-79
2023/12/09 19:35:03;;;;;;;9.30;8.90;;;8.30;99.90;;;;;;10379536;22;20300;-76
2023/12/09 19:40:07;;;;;;;7.73;7.43;;;8.40;99.90;;;;;;10389249;28;20750;-76
2023/12/09 19:45:10;;;;;;;5.80;5.60;;;8.30;99.90;;;;;;10405960;28;20271;-76
2023/12/09 19:50:14;;;;;;;10.63;10.13;;;8.30;99.90;;;;;;10378483;28;20221;-76
2023/12/09 19:55:16;;;;;;;10.13;9.60;;;8.30;99.90;;;;;;10406165;28;20291;-76
2023/12/09 20:00:19;;;;;;;9.67;9.20;;;8.30;99.90;;;;;;10390837;28;20252;-76
2023/12/09 20:05:23;;;;;;;9.20;8.80;;;8.40;99.90;;;;;;10377302;28;20222;-76
2023/12/09 20:10:25;;;;;;;9.57;9.17;;;8.40;99.90;;;;;;10403118;28;20256;-76
2023/12/09 20:15:28;;;;;;;9.77;9.27;;;8.40;99.90;;;;;;10386099;28;20291;-76
2023/12/09 20:20:32;;;;;;;9.10;8.60;;;8.40;99.90;;;;;;10376616;28;20198;-76
2023/12/09 20:25:35;;;;;;;7.80;7.50;;;8.50;99.90;;;;;;10403679;28;20252;-76
2023/12/09 20:30:38;;;;;;;8.93;8.50;;;8.50;99.90;;;;;;10366010;28;20547;-75
2023/12/09 20:35:42;;;;;;;10.03;9.63;;;8.50;99.90;;;;;;10361733;28;20230;-76
2023/12/09 20:40:44;;;;;;;9.80;9.40;;;8.50;99.90;;;;;;10364673;28;20202;-74
2023/12/09 20:45:47;;;;;;;7.70;7.40;;;8.60;99.90;;;;;;10367345;28;20218;-77
2023/12/09 20:50:51;;;;;;;9.80;9.40;;;8.60;99.90;;;;;;10366805;28;20222;-76
2023/12/09 20:55:53;;;;;;;8.13;7.83;;;8.60;99.90;;;;;;10368475;28;20223;-76
2023/12/09 21:00:55;;;;;;;8.80;8.40;;;8.70;99.90;;;;;;10369866;28;20202;-76
2023/12/09 21:05:59;;;;;;;9.67;9.07;;;8.70;99.90;;;;;;10370633;28;20226;-76
2023/12/09 21:11:02;;;;;;;8.20;7.70;;;8.80;99.90;;;;;;10370238;28;20226;-76
2023/12/09 21:16:05;;;;;;;6.00;5.70;;;8.80;99.90;;;;;;10366486;28;20641;-75
2023/12/09 21:21:08;;;;;;;10.37;9.87;;;8.80;99.90;;;;;;10360714;28;20594;-75
2023/12/09 21:26:11;;;;;;;8.97;8.50;;;8.90;99.90;;;;;;10342588;28;20597;-75
2023/12/09 21:31:14;;;;;;;5.90;5.70;;;8.90;99.90;;;;;;10362388;28;20225;-76
2023/12/09 21:36:18;;;;;;;9.40;9.00;;;8.90;99.90;;;;;;10360008;28;20264;-76
2023/12/09 21:41:21;;;;;;;10.73;10.33;;;8.90;99.90;;;;;;10360413;28;20736;-76
2023/12/09 21:46:24;;;;;;;10.57;10.07;;;9.00;99.90;;;;;;10366556;28;20238;-76
2023/12/09 21:51:28;;;;;;;9.17;8.80;;;9.00;99.90;;;;;;10375313;28;20245;-76
2023/12/09 21:56:31;;;;;;;9.70;9.30;;;9.10;99.90;;;;;;10365848;28;20222;-76
2023/12/09 22:01:35;;;;;;;9.90;9.40;;;9.10;99.90;;;;;;10383717;28;20202;-75
2023/12/09 22:06:38;;;;;;;9.83;9.50;;;9.10;99.90;;;;;;10379152;28;20218;-74
2023/12/09 22:11:41;;;;;;;5.50;5.03;;;9.10;99.90;;;;;;10380832;28;20198;-76
2023/12/09 22:16:43;;;;;;;8.50;8.20;;;9.10;99.90;;;;;;10370210;28;20222;-76
2023/12/09 22:21:48;;;;;;;8.93;8.63;;;9.10;99.90;;;;;;10369340;28;20652;-76
2023/12/09 22:26:50;;;;;;;9.37;8.97;;;9.10;99.90;;;;;;10391538;28;20218;-76
2023/12/09 22:31:53;;;;;;;8.20;7.90;;;9.10;99.90;;;;;;10374353;28;20209;-76
2023/12/09 22:36:56;;;;;;;8.40;8.10;;;9.10;99.90;;;;;;10391688;28;20230;-76
2023/12/09 22:41:59;;;;;;;9.73;9.33;;;9.10;99.90;;;;;;10379143;28;20198;-76
2023/12/09 22:47:01;;;;;;;9.43;8.90;;;9.10;99.90;;;;;;10398666;28;20225;-75
2023/12/09 22:52:08;;;;;;;8.93;8.53;;;9.20;99.90;;;;;;10399781;28;20198;-75
2023/12/09 22:57:12;;;;;;;8.37;7.97;;;9.20;99.90;;;;;;10378991;28;20195;-76
2023/12/09 23:02:15;;;;;;;9.40;8.60;;;9.30;99.90;;;;;;10399097;28;20197;-76
2023/12/09 23:07:19;;;;;;;9.20;7.53;;;9.40;99.90;;;;;;10378911;28;20257;-76
2023/12/09 23:12:22;;;;;;;24.10;8.23;;;9.40;99.90;;;;;;10398093;28;20197;-76
2023/12/09 23:17:24;;;;;;;11.37;8.33;;;9.40;99.90;;;;;;10378606;28;20194;-76
2023/12/09 23:22:28;;;;;;;14.70;8.07;;;9.40;99.90;;;;;;10395979;28;20204;-76
2023/12/09 23:27:30;;;;;;;17.23;8.50;;;9.40;99.90;;;;;;10377315;28;20659;-76
2023/12/09 23:32:33;;;;;;;18.90;8.47;;;9.40;99.90;;;;;;10389317;28;20229;-76
2023/12/09 23:37:37;;;;;;;19.73;9.40;;;9.40;99.90;;;;;;10382479;28;20198;-76
2023/12/09 23:42:39;;;;;;;18.33;9.10;;;9.40;99.90;;;;;;10399262;28;20299;-76
2023/12/09 23:47:42;;;;;;;13.90;8.63;;;9.50;99.90;;;;;;10380868;28;20230;-75
2023/12/09 23:52:46;;;;;;;17.07;7.03;;;9.50;99.90;;;;;;10399537;28;20268;-76
2023/12/09 23:57:49;;;;;;;17.30;8.23;;;9.60;99.90;;;;;;10382887;28;20199;-76
